createdAt,value
2022-09-15T00:01:27.216Z,22.67
2022-09-15T00:06:36.078Z,23.90
2022-09-15T00:11:43.910Z,26.23
2022-09-15T00:16:52.340Z,26.20
2022-09-15T00:22:01.746Z,30.70
2022-09-15T00:27:09.738Z,30.33
2022-09-15T00:32:17.629Z,38.57
2022-09-15T00:37:25.399Z,39.50
2022-09-15T00:42:33.219Z,39.87
2022-09-15T00:47:41.001Z,47.30
2022-09-15T00:52:51.984Z,41.07
2022-09-15T01:03:12.647Z,48.87
2022-09-15T01:08:23.589Z,46.23
2022-09-15T01:13:31.503Z,49.63
2022-09-15T01:23:58.994Z,50.37
2022-09-15T01:34:21.673Z,47.93
2022-09-15T01:39:31.711Z,42.73
2022-09-15T01:44:41.751Z,43.90
2022-09-15T01:49:52.513Z,39.60
2022-09-15T01:55:04.655Z,41.77
2022-09-15T02:00:20.495Z,38.53
2022-09-15T02:05:40.821Z,43.13
2022-09-15T02:10:51.811Z,44.90
2022-09-15T02:16:00.249Z,42.97
2022-09-15T02:21:11.355Z,51.33
2022-09-15T02:26:23.561Z,51.27
2022-09-15T02:31:31.469Z,58.97
2022-09-15T02:36:39.816Z,52.97
2022-09-15T02:41:48.209Z,47.83
2022-09-15T02:46:56.080Z,58.83
2022-09-15T02:52:04.109Z,47.90
2022-09-15T02:57:13.098Z,58.23
2022-09-15T03:02:21.160Z,53.00
2022-09-15T03:07:29.489Z,51.57
2022-09-15T03:12:41.397Z,57.73
2022-09-15T03:17:49.921Z,60.87
2022-09-15T03:22:58.789Z,73.33
2022-09-15T03:28:07.034Z,66.37
2022-09-15T03:33:15.331Z,67.27
2022-09-15T03:38:24.556Z,66.87
2022-09-15T03:43:34.276Z,39.20
2022-09-15T03:48:42.109Z,34.97
2022-09-15T03:53:50.944Z,28.20
2022-09-15T03:58:59.442Z,33.57
2022-09-15T04:04:07.349Z,31.30
2022-09-15T04:09:15.529Z,43.87
2022-09-15T04:14:23.449Z,27.33
2022-09-15T04:19:31.659Z,17.73
2022-09-15T04:24:39.608Z,17.63
2022-09-15T04:29:47.523Z,23.07
2022-09-15T04:34:55.923Z,13.17
2022-09-15T04:40:03.974Z,18.03
2022-09-15T04:45:12.023Z,18.03
2022-09-15T04:50:23.722Z,18.70
2022-09-15T04:55:33.993Z,14.47
2022-09-15T05:00:43.858Z,23.53
2022-09-15T05:05:51.954Z,19.07
2022-09-15T05:11:02.859Z,19.23
2022-09-15T05:16:12.821Z,21.07
2022-09-15T05:21:21.731Z,20.13
2022-09-15T05:26:30.058Z,17.13
2022-09-15T05:31:38.007Z,23.13
2022-09-15T05:36:45.866Z,20.13
2022-09-15T05:41:53.689Z,26.17
2022-09-15T05:47:01.772Z,29.43
2022-09-15T05:52:09.636Z,32.40
2022-09-15T05:57:17.561Z,31.57
2022-09-15T06:02:25.442Z,27.80
2022-09-15T06:07:33.358Z,23.53
2022-09-15T06:12:41.667Z,28.67
2022-09-15T06:17:49.727Z,28.57
2022-09-15T06:22:58.400Z,26.20
2022-09-15T06:28:06.192Z,16.73
2022-09-15T06:33:14.791Z,22.73
2022-09-15T06:38:23.214Z,27.70
2022-09-15T06:43:31.965Z,18.17
2022-09-15T06:48:40.594Z,20.00
2022-09-15T06:53:48.605Z,23.87
2022-09-15T06:58:56.695Z,15.13
2022-09-15T07:04:06.169Z,14.13
2022-09-15T07:09:14.035Z,16.00
2022-09-15T07:14:21.830Z,15.57
2022-09-15T07:19:29.661Z,15.70
2022-09-15T07:24:37.430Z,11.93
2022-09-15T07:29:45.288Z,14.77
2022-09-15T07:34:56.548Z,11.13
2022-09-15T07:40:03.435Z,12.67
2022-09-15T07:45:12.172Z,11.30
2022-09-15T07:50:20.012Z,14.00
2022-09-15T07:55:28.294Z,9.83
2022-09-15T08:00:36.115Z,11.23
2022-09-15T08:05:45.845Z,10.97
2022-09-15T08:10:53.728Z,5.20
2022-09-15T08:16:04.739Z,9.27
2022-09-15T08:21:14.847Z,6.97
2022-09-15T08:26:23.737Z,6.73
2022-09-15T08:31:31.567Z,11.33
2022-09-15T08:36:39.604Z,8.27
2022-09-15T08:41:50.506Z,7.90
2022-09-15T08:47:02.015Z,8.30
2022-09-15T08:52:13.149Z,10.40
2022-09-15T08:57:22.881Z,10.17
2022-09-15T09:02:34.074Z,7.17
2022-09-15T09:07:46.529Z,12.37
2022-09-15T09:18:11.632Z,8.43
2022-09-15T09:23:21.766Z,6.87
2022-09-15T09:28:33.575Z,9.83
2022-09-15T09:33:47.741Z,7.13
2022-09-15T09:38:54.086Z,9.43
2022-09-15T09:44:02.113Z,10.70
2022-09-15T09:49:13.138Z,8.33
2022-09-15T09:54:22.800Z,8.53
2022-09-15T09:59:35.148Z,7.87
2022-09-15T10:04:45.508Z,8.13
2022-09-15T10:09:55.846Z,6.77
2022-09-15T10:15:05.307Z,6.83
2022-09-15T10:20:16.603Z,7.40
2022-09-15T10:30:38.592Z,6.87
2022-09-15T10:35:46.926Z,7.90
2022-09-15T10:40:58.473Z,6.00
2022-09-15T10:46:09.473Z,8.07
2022-09-15T10:51:20.899Z,8.90
2022-09-15T10:56:31.790Z,11.23
2022-09-15T11:01:42.778Z,5.50
2022-09-15T11:06:55.241Z,10.40
2022-09-15T11:22:34.356Z,7.73
2022-09-15T11:27:45.551Z,12.37
2022-09-15T11:38:13.030Z,6.23
2022-09-15T11:43:24.320Z,3.83
2022-09-15T11:48:36.818Z,5.83
2022-09-15T11:53:48.592Z,6.53
2022-09-15T11:58:59.550Z,8.60
2022-09-15T12:04:10.104Z,6.73
2022-09-15T12:09:18.912Z,3.40
2022-09-15T12:14:29.528Z,5.67
2022-09-15T12:19:40.836Z,7.90
2022-09-15T12:24:51.822Z,4.53
2022-09-15T12:30:00.771Z,6.07
2022-09-15T12:35:13.735Z,4.03
2022-09-15T12:40:25.431Z,5.97
2022-09-15T12:45:36.504Z,4.70
2022-09-15T12:50:44.737Z,8.70
2022-09-15T12:55:56.110Z,6.93
2022-09-15T13:01:18.241Z,3.83
2022-09-15T13:06:20.479Z,4.10
2022-09-15T13:11:32.216Z,5.03
2022-09-15T13:16:43.996Z,4.93
2022-09-15T13:21:56.791Z,4.83
2022-09-15T13:27:04.823Z,5.90
2022-09-15T13:32:15.894Z,7.33
2022-09-15T13:42:41.078Z,9.40
2022-09-15T13:47:52.921Z,7.03
2022-09-15T13:53:05.202Z,6.47
2022-09-15T14:03:28.864Z,6.23
2022-09-15T14:08:38.468Z,6.23
2022-09-15T14:13:49.546Z,6.30
2022-09-15T14:19:00.461Z,8.00
2022-09-15T14:24:14.331Z,8.00
2022-09-15T14:29:24.715Z,5.83
2022-09-15T14:34:34.448Z,5.40
2022-09-15T14:39:44.173Z,5.10
2022-09-15T14:50:16.359Z,8.97
2022-09-15T14:55:28.365Z,9.07
2022-09-15T15:00:39.407Z,5.70
2022-09-15T15:05:54.703Z,5.77
2022-09-15T15:11:01.023Z,7.20
2022-09-15T15:16:12.411Z,9.77
2022-09-15T15:21:24.175Z,4.03
2022-09-15T15:26:35.699Z,9.23
2022-09-15T15:31:43.605Z,5.93
2022-09-15T15:36:51.573Z,6.27
2022-09-15T15:42:02.672Z,4.30
2022-09-15T15:47:15.480Z,5.73
2022-09-15T15:52:23.931Z,4.83
2022-09-15T15:57:34.844Z,5.53
2022-09-15T16:02:42.697Z,4.90
2022-09-15T16:07:51.066Z,7.80
2022-09-15T16:12:58.883Z,7.00
2022-09-15T16:18:06.802Z,7.27
2022-09-15T16:23:16.565Z,5.70
2022-09-15T16:28:24.460Z,7.67
2022-09-15T16:33:37.875Z,6.43
2022-09-15T16:38:43.300Z,4.47
2022-09-15T16:43:52.197Z,6.13
2022-09-15T16:49:03.176Z,8.77
2022-09-15T16:54:14.613Z,5.40
2022-09-15T16:59:22.982Z,4.40
2022-09-15T17:04:30.895Z,7.90
2022-09-15T17:09:38.712Z,4.23
2022-09-15T17:14:46.717Z,7.13
2022-09-15T17:19:55.072Z,6.47
2022-09-15T17:25:03.206Z,6.10
2022-09-15T17:30:12.015Z,7.27
2022-09-15T17:35:22.734Z,4.63
2022-09-15T17:40:30.702Z,4.60
2022-09-15T17:45:38.584Z,5.53
2022-09-15T17:50:48.307Z,5.30
2022-09-15T17:55:56.872Z,7.30
2022-09-15T18:01:04.935Z,5.30
2022-09-15T18:06:13.066Z,5.03
2022-09-15T18:11:21.631Z,3.27
2022-09-15T18:16:29.775Z,4.67
2022-09-15T18:21:38.029Z,8.20
2022-09-15T18:26:46.362Z,4.83
2022-09-15T18:31:54.385Z,5.07
2022-09-15T18:37:02.384Z,7.53
2022-09-15T18:42:13.946Z,6.17
2022-09-15T18:47:25.879Z,5.00
2022-09-15T18:52:38.430Z,8.90
2022-09-15T18:57:51.350Z,3.57
2022-09-15T19:03:11.730Z,6.42
2022-09-15T19:08:25.564Z,6.07
2022-09-15T19:13:38.360Z,7.93
2022-09-15T19:18:48.864Z,6.43
2022-09-15T19:23:59.758Z,3.97
2022-09-15T19:29:09.189Z,6.00
2022-09-15T19:34:18.490Z,5.20
2022-09-15T19:39:26.810Z,5.17
2022-09-15T19:44:35.100Z,7.33
2022-09-15T19:49:43.129Z,5.93
2022-09-15T19:54:51.501Z,3.63
2022-09-15T19:59:59.412Z,3.80
2022-09-15T20:05:08.320Z,7.33
2022-09-15T20:10:17.594Z,5.20
2022-09-15T20:15:30.187Z,5.53
2022-09-15T20:20:40.280Z,3.30
2022-09-15T20:25:52.294Z,4.63
2022-09-15T20:31:03.677Z,5.30
2022-09-15T20:36:14.074Z,6.97
2022-09-15T20:41:23.654Z,6.73
2022-09-15T20:46:31.771Z,6.07
2022-09-15T20:51:40.743Z,7.13
2022-09-15T20:56:48.632Z,8.77
2022-09-15T21:01:57.030Z,5.03
2022-09-15T21:07:04.888Z,5.63
2022-09-15T21:12:12.746Z,4.90
2022-09-15T21:17:21.044Z,6.17
2022-09-15T21:22:29.374Z,5.73
2022-09-15T21:27:37.766Z,4.30
2022-09-15T21:32:46.273Z,3.63
2022-09-15T21:37:58.809Z,3.87
2022-09-15T21:43:04.577Z,4.27
2022-09-15T21:48:14.520Z,4.03
2022-09-15T21:53:23.124Z,5.63
2022-09-15T21:58:33.160Z,3.13
2022-09-15T22:03:43.124Z,3.10
2022-09-15T22:08:52.023Z,5.17
2022-09-15T22:14:00.110Z,3.37
2022-09-15T22:19:09.428Z,3.40
2022-09-15T22:24:17.684Z,5.67
2022-09-15T22:29:25.530Z,2.33
2022-09-15T22:34:33.426Z,11.33
2022-09-15T22:39:58.619Z,5.57
2022-09-15T22:44:51.011Z,4.00
2022-09-15T22:49:58.780Z,4.43
2022-09-15T22:55:07.572Z,6.80
2022-09-15T23:00:16.669Z,5.00
2022-09-15T23:05:24.798Z,3.07
2022-09-15T23:10:32.886Z,4.47
2022-09-15T23:15:41.147Z,7.17
2022-09-15T23:20:51.544Z,7.17
2022-09-15T23:25:59.379Z,3.27
2022-09-15T23:31:07.663Z,4.33
2022-09-15T23:36:18.995Z,3.77
2022-09-15T23:41:27.414Z,5.30
2022-09-15T23:46:35.235Z,6.47
2022-09-15T23:51:43.076Z,3.53
2022-09-15T23:56:50.837Z,7.47
